EDT,Max TemperatureF,Mean TemperatureF,Min TemperatureF,Max Dew PointF,MeanDew PointF,Min DewpointF,Max Humidity, Mean Humidity, Min Humidity, Max Sea Level PressureIn, Mean Sea Level PressureIn, Min Sea Level PressureIn, Max VisibilityMiles, Mean VisibilityMiles, Min VisibilityMiles, Max Wind SpeedMPH, Mean Wind SpeedMPH, Max Gust SpeedMPH,PrecipitationIn, CloudCover, Events, WindDirDegrees
2012-6-1,67,60,53,63,57,48,97,81,64,29.80,29.66,29.54,10,6,1,23,11,29,1.28,8,Rain,156
2012-6-2,70,60,50,52,46,41,83,64,44,29.79,29.76,29.70,10,10,10,22,11,31,0.01,6,Rain,233
2012-6-3,77,66,54,52,48,43,77,54,31,29.80,29.75,29.70,10,10,10,23,10,33,T,6,Rain,255
2012-6-4,69,59,49,51,48,46,93,71,48,29.86,29.80,29.73,10,10,10,18,8,23,0.00,6,,347
2012-6-5,65,57,49,54,49,47,96,78,60,29.98,29.93,29.86,10,10,7,15,6,23,0.24,7,Fog-Rain,28
2012-6-6,73,58,43,57,49,43,100,71,41,30.05,30.02,29.99,10,10,9,15,4,25,0.04,3,Fog,64
2012-6-7,78,63,47,53,49,44,96,66,36,30.07,30.04,30.01,10,10,9,17,6,23,0.00,3,,313
2012-6-8,80,66,52,53,48,42,83,56,28,30.05,30.01,29.96,10,10,10,21,5,25,0.00,4,,268
2012-6-9,86,72,58,54,50,45,64,48,32,30.00,29.97,29.94,10,10,10,16,7,22,0.00,3,,233
2012-6-10,88,75,62,59,55,52,84,59,34,30.09,30.05,30.00,10,10,10,12,4,16,0.00,1,,178
2012-6-11,79,71,62,68,63,57,97,76,54,30.06,30.00,29.92,10,8,2,13,6,16,0.10,7,Rain,142
2012-6-12,84,73,62,70,64,51,90,65,39,30.01,29.89,29.83,10,6,1,22,9,28,0.24,7,Rain,224
2012-6-13,72,61,50,52,46,42,77,59,40,30.17,30.13,30.03,10,10,10,15,8,21,0.00,2,,1
2012-6-14,79,64,49,54,49,45,86,61,35,30.23,30.19,30.15,10,10,10,14,6,18,0.00,5,,83
2012-6-15,82,69,56,58,56,52,86,63,40,30.24,30.20,30.17,10,10,10,13,7,20,0.00,3,,125
2012-6-16,84,71,58,61,57,53,80,62,43,30.27,30.18,30.09,10,10,10,16,8,20,0.00,7,,138
2012-6-17,80,72,64,67,61,54,93,76,59,30.08,29.99,29.89,10,8,2,18,9,24,0.41,7,Rain-Thunderstorm,172
2012-6-18,83,75,66,68,65,62,100,78,55,29.98,29.93,29.90,10,6,1,23,7,30,0.30,7,Rain,193
2012-6-19,89,77,65,66,64,61,87,64,41,30.13,30.05,30.00,10,10,9,18,9,36,0.00,4,,209
2012-6-20,90,79,68,67,64,62,84,63,41,30.16,30.10,30.01,10,10,8,14,5,20,0.00,1,,223
2012-6-21,91,80,69,66,63,60,79,59,38,30.02,29.95,29.83,10,9,7,18,9,26,0.00,2,,236
2012-6-22,83,71,58,65,59,52,93,66,39,29.97,29.92,29.88,10,10,9,18,6,23,T,5,Rain,330
2012-6-23,81,67,53,60,53,48,93,64,35,30.07,30.02,29.96,10,10,10,15,5,24,0.00,4,,340
2012-6-24,84,68,52,60,54,49,93,65,37,30.08,30.00,29.86,10,10,10,10,3,14,0.00,6,,168
2012-6-25,72,63,54,63,54,43,93,66,38,29.98,29.91,29.82,10,9,2,28,12,41,0.10,6,Rain-Thunderstorm,341
2012-6-26,78,64,50,54,49,46,93,65,36,30.01,29.97,29.93,10,10,10,23,9,30,0.00,3,,323
2012-6-27,84,68,51,55,51,47,89,59,28,30.01,29.96,29.89,10,10,10,17,6,24,0.00,2,,301
2012-6-28,94,79,63,68,59,51,67,51,34,29.92,29.81,29.70,10,10,10,17,8,23,0.00,3,,214
2012-6-29,95,81,66,72,64,54,79,56,32,29.87,29.79,29.69,10,10,7,15,6,24,T,4,Rain,286
2012-6-30,89,74,59,63,60,56,93,64,34,29.91,29.83,29.80,10,10,7,15,6,20,T,4,Rain,223